sensor_id;sensor_type;location;lat;lon;timestamp;temperature;humidity
69436;SHT31;56625;54.322;18.582;2023-09-08T00:00:19;16.46;85.51
69436;SHT31;56625;54.322;18.582;2023-09-08T00:03:06;16.56;85.38
69436;SHT31;56625;54.322;18.582;2023-09-08T00:05:32;16.67;85.45
69436;SHT31;56625;54.322;18.582;2023-09-08T00:07:59;16.74;85.01
69436;SHT31;56625;54.322;18.582;2023-09-08T00:10:25;16.77;84.77
69436;SHT31;56625;54.322;18.582;2023-09-08T00:12:52;16.80;84.81
69436;SHT31;56625;54.322;18.582;2023-09-08T00:15:18;16.87;84.90
69436;SHT31;56625;54.322;18.582;2023-09-08T00:17:45;16.97;84.78
69436;SHT31;56625;54.322;18.582;2023-09-08T00:20:13;17.00;84.17
69436;SHT31;56625;54.322;18.582;2023-09-08T00:22:40;17.01;84.31
69436;SHT31;56625;54.322;18.582;2023-09-08T00:25:06;17.02;83.96
69436;SHT31;56625;54.322;18.582;2023-09-08T00:27:33;16.94;83.50
69436;SHT31;56625;54.322;18.582;2023-09-08T00:29:59;16.85;83.20
69436;SHT31;56625;54.322;18.582;2023-09-08T00:32:28;16.64;82.68
69436;SHT31;56625;54.322;18.582;2023-09-08T00:34:54;16.38;82.87
69436;SHT31;56625;54.322;18.582;2023-09-08T00:37:21;16.18;83.31
69436;SHT31;56625;54.322;18.582;2023-09-08T00:39:47;16.02;83.84
69436;SHT31;56625;54.322;18.582;2023-09-08T00:42:14;15.88;84.20
69436;SHT31;56625;54.322;18.582;2023-09-08T00:44:41;15.77;84.49
69436;SHT31;56625;54.322;18.582;2023-09-08T00:47:07;15.66;84.72
69436;SHT31;56625;54.322;18.582;2023-09-08T00:49:34;15.60;84.94
69436;SHT31;56625;54.322;18.582;2023-09-08T00:52:00;15.53;85.22
69436;SHT31;56625;54.322;18.582;2023-09-08T00:54:27;15.49;85.79
69436;SHT31;56625;54.322;18.582;2023-09-08T00:56:55;15.49;85.99
69436;SHT31;56625;54.322;18.582;2023-09-08T00:59:26;15.46;86.09
69436;SHT31;56625;54.322;18.582;2023-09-08T01:01:53;15.44;86.13
69436;SHT31;56625;54.322;18.582;2023-09-08T01:04:20;15.45;86.24
69436;SHT31;56625;54.322;18.582;2023-09-08T01:06:47;15.47;86.21
69436;SHT31;56625;54.322;18.582;2023-09-08T01:09:15;15.42;85.97
69436;SHT31;56625;54.322;18.582;2023-09-08T01:11:42;15.41;86.11
69436;SHT31;56625;54.322;18.582;2023-09-08T01:14:11;15.36;86.17
69436;SHT31;56625;54.322;18.582;2023-09-08T01:16:39;15.29;86.25
69436;SHT31;56625;54.322;18.582;2023-09-08T01:19:06;15.23;86.47
69436;SHT31;56625;54.322;18.582;2023-09-08T01:27:47;15.23;86.73
69436;SHT31;56625;54.322;18.582;2023-09-08T01:30:18;15.15;86.69
69436;SHT31;56625;54.322;18.582;2023-09-08T01:32:47;15.12;86.81
69436;SHT31;56625;54.322;18.582;2023-09-08T01:35:15;15.13;87.00
69436;SHT31;56625;54.322;18.582;2023-09-08T01:37:44;15.19;86.91
69436;SHT31;56625;54.322;18.582;2023-09-08T01:40:13;15.17;86.57
69436;SHT31;56625;54.322;18.582;2023-09-08T01:42:40;15.12;86.41
69436;SHT31;56625;54.322;18.582;2023-09-08T01:45:08;15.06;86.41
69436;SHT31;56625;54.322;18.582;2023-09-08T01:47:35;15.03;86.59
69436;SHT31;56625;54.322;18.582;2023-09-08T01:50:02;15.03;86.82
69436;SHT31;56625;54.322;18.582;2023-09-08T01:52:29;15.06;86.93
69436;SHT31;56625;54.322;18.582;2023-09-08T01:54:56;15.01;86.82
69436;SHT31;56625;54.322;18.582;2023-09-08T01:57:23;14.96;86.86
69436;SHT31;56625;54.322;18.582;2023-09-08T01:59:49;14.93;87.10
69436;SHT31;56625;54.322;18.582;2023-09-08T02:02:16;14.89;87.16
69436;SHT31;56625;54.322;18.582;2023-09-08T02:04:42;14.86;87.42
69436;SHT31;56625;54.322;18.582;2023-09-08T02:07:09;14.84;87.39
69436;SHT31;56625;54.322;18.582;2023-09-08T02:09:36;14.80;87.43
69436;SHT31;56625;54.322;18.582;2023-09-08T02:12:04;14.80;87.61
69436;SHT31;56625;54.322;18.582;2023-09-08T02:14:31;14.77;87.59
69436;SHT31;56625;54.322;18.582;2023-09-08T02:16:57;14.76;87.60
69436;SHT31;56625;54.322;18.582;2023-09-08T02:19:24;14.75;87.59
69436;SHT31;56625;54.322;18.582;2023-09-08T02:21:51;14.76;87.64
69436;SHT31;56625;54.322;18.582;2023-09-08T02:24:17;14.77;87.64
69436;SHT31;56625;54.322;18.582;2023-09-08T02:26:44;14.76;87.33
69436;SHT31;56625;54.322;18.582;2023-09-08T02:29:10;14.74;87.57
69436;SHT31;56625;54.322;18.582;2023-09-08T02:31:37;14.77;87.99
69436;SHT31;56625;54.322;18.582;2023-09-08T02:34:03;14.81;88.08
69436;SHT31;56625;54.322;18.582;2023-09-08T02:36:30;14.83;88.02
69436;SHT31;56625;54.322;18.582;2023-09-08T02:38:57;14.87;88.13
69436;SHT31;56625;54.322;18.582;2023-09-08T02:41:24;15.02;88.46
69436;SHT31;56625;54.322;18.582;2023-09-08T02:43:50;15.13;88.15
69436;SHT31;56625;54.322;18.582;2023-09-08T02:46:17;15.26;88.08
69436;SHT31;56625;54.322;18.582;2023-09-08T02:48:43;15.43;88.10
69436;SHT31;56625;54.322;18.582;2023-09-08T02:51:10;15.53;87.63
69436;SHT31;56625;54.322;18.582;2023-09-08T02:53:38;15.69;87.65
69436;SHT31;56625;54.322;18.582;2023-09-08T02:56:04;15.85;87.34
69436;SHT31;56625;54.322;18.582;2023-09-08T02:58:31;15.93;86.72
69436;SHT31;56625;54.322;18.582;2023-09-08T03:01:11;15.83;85.21
69436;SHT31;56625;54.322;18.582;2023-09-08T03:03:47;15.58;84.58
69436;SHT31;56625;54.322;18.582;2023-09-08T03:06:15;15.37;84.74
69436;SHT31;56625;54.322;18.582;2023-09-08T03:08:45;15.22;84.86
69436;SHT31;56625;54.322;18.582;2023-09-08T03:11:12;15.10;85.09
69436;SHT31;56625;54.322;18.582;2023-09-08T03:13:39;15.02;85.45
69436;SHT31;56625;54.322;18.582;2023-09-08T03:16:06;15.14;86.90
69436;SHT31;56625;54.322;18.582;2023-09-08T03:18:35;15.28;86.50
69436;SHT31;56625;54.322;18.582;2023-09-08T03:21:04;15.28;85.90
69436;SHT31;56625;54.322;18.582;2023-09-08T03:23:41;15.21;85.47
69436;SHT31;56625;54.322;18.582;2023-09-08T03:26:10;15.11;85.36
69436;SHT31;56625;54.322;18.582;2023-09-08T03:28:37;15.02;85.33
69436;SHT31;56625;54.322;18.582;2023-09-08T03:31:07;14.91;85.41
69436;SHT31;56625;54.322;18.582;2023-09-08T03:33:34;14.83;85.62
69436;SHT31;56625;54.322;18.582;2023-09-08T03:36:01;14.77;85.70
69436;SHT31;56625;54.322;18.582;2023-09-08T03:38:28;14.72;85.78
69436;SHT31;56625;54.322;18.582;2023-09-08T03:40:55;14.66;86.18
69436;SHT31;56625;54.322;18.582;2023-09-08T03:43:21;14.64;86.49
69436;SHT31;56625;54.322;18.582;2023-09-08T03:45:48;14.63;86.67
69436;SHT31;56625;54.322;18.582;2023-09-08T03:48:15;14.60;86.62
69436;SHT31;56625;54.322;18.582;2023-09-08T03:50:42;14.59;87.09
69436;SHT31;56625;54.322;18.582;2023-09-08T03:53:11;14.57;87.26
69436;SHT31;56625;54.322;18.582;2023-09-08T03:55:39;14.55;87.34
69436;SHT31;56625;54.322;18.582;2023-09-08T03:58:05;14.51;87.29
69436;SHT31;56625;54.322;18.582;2023-09-08T04:00:32;14.48;87.22
69436;SHT31;56625;54.322;18.582;2023-09-08T04:02:59;14.46;87.40
69436;SHT31;56625;54.322;18.582;2023-09-08T04:05:25;14.47;87.69
69436;SHT31;56625;54.322;18.582;2023-09-08T04:07:52;14.47;87.70
69436;SHT31;56625;54.322;18.582;2023-09-08T04:10:19;14.46;87.64
69436;SHT31;56625;54.322;18.582;2023-09-08T04:12:45;14.45;87.51
69436;SHT31;56625;54.322;18.582;2023-09-08T04:15:12;14.44;87.43
69436;SHT31;56625;54.322;18.582;2023-09-08T04:17:39;14.44;87.50
69436;SHT31;56625;54.322;18.582;2023-09-08T04:20:05;14.42;87.50
69436;SHT31;56625;54.322;18.582;2023-09-08T04:22:34;14.41;87.48
69436;SHT31;56625;54.322;18.582;2023-09-08T04:25:01;14.42;87.52
69436;SHT31;56625;54.322;18.582;2023-09-08T04:27:28;14.45;87.64
69436;SHT31;56625;54.322;18.582;2023-09-08T04:29:55;14.47;87.69
69436;SHT31;56625;54.322;18.582;2023-09-08T04:32:21;14.53;87.56
69436;SHT31;56625;54.322;18.582;2023-09-08T04:34:48;14.62;87.52
69436;SHT31;56625;54.322;18.582;2023-09-08T04:37:15;14.69;87.40
69436;SHT31;56625;54.322;18.582;2023-09-08T04:39:42;14.76;87.32
69436;SHT31;56625;54.322;18.582;2023-09-08T04:42:10;14.85;87.14
69436;SHT31;56625;54.322;18.582;2023-09-08T04:44:36;14.95;86.93
69436;SHT31;56625;54.322;18.582;2023-09-08T04:47:03;15.05;86.72
69436;SHT31;56625;54.322;18.582;2023-09-08T04:49:31;15.14;86.45
69436;SHT31;56625;54.322;18.582;2023-09-08T04:51:58;15.24;86.28
69436;SHT31;56625;54.322;18.582;2023-09-08T04:54:24;15.35;86.03
69436;SHT31;56625;54.322;18.582;2023-09-08T04:56:53;15.43;85.84
69436;SHT31;56625;54.322;18.582;2023-09-08T04:59:30;15.56;86.01
69436;SHT31;56625;54.322;18.582;2023-09-08T05:01:57;15.82;86.25
69436;SHT31;56625;54.322;18.582;2023-09-08T05:04:24;16.04;86.04
69436;SHT31;56625;54.322;18.582;2023-09-08T05:06:51;16.31;86.08
69436;SHT31;56625;54.322;18.582;2023-09-08T05:09:18;16.57;85.53
69436;SHT31;56625;54.322;18.582;2023-09-08T05:11:44;16.75;84.76
69436;SHT31;56625;54.322;18.582;2023-09-08T05:14:11;16.88;84.09
69436;SHT31;56625;54.322;18.582;2023-09-08T05:16:37;16.90;83.30
69436;SHT31;56625;54.322;18.582;2023-09-08T05:19:12;16.90;83.02
69436;SHT31;56625;54.322;18.582;2023-09-08T05:21:39;16.97;83.16
69436;SHT31;56625;54.322;18.582;2023-09-08T05:24:07;17.02;82.81
69436;SHT31;56625;54.322;18.582;2023-09-08T05:26:35;17.08;82.58
69436;SHT31;56625;54.322;18.582;2023-09-08T05:29:07;17.18;82.63
69436;SHT31;56625;54.322;18.582;2023-09-08T05:31:34;17.29;82.16
69436;SHT31;56625;54.322;18.582;2023-09-08T05:34:00;17.35;81.83
69436;SHT31;56625;54.322;18.582;2023-09-08T05:36:27;17.40;81.74
69436;SHT31;56625;54.322;18.582;2023-09-08T05:38:55;17.50;81.89
69436;SHT31;56625;54.322;18.582;2023-09-08T05:41:22;17.65;81.87
69436;SHT31;56625;54.322;18.582;2023-09-08T05:43:49;17.81;81.71
69436;SHT31;56625;54.322;18.582;2023-09-08T05:46:15;17.93;81.16
69436;SHT31;56625;54.322;18.582;2023-09-08T05:48:42;18.01;80.87
69436;SHT31;56625;54.322;18.582;2023-09-08T05:51:09;18.12;80.66
69436;SHT31;56625;54.322;18.582;2023-09-08T05:53:38;18.29;80.86
69436;SHT31;56625;54.322;18.582;2023-09-08T05:56:06;18.51;80.65
69436;SHT31;56625;54.322;18.582;2023-09-08T05:58:33;18.70;80.19
69436;SHT31;56625;54.322;18.582;2023-09-08T06:01:01;18.83;79.49
69436;SHT31;56625;54.322;18.582;2023-09-08T06:03:30;18.94;79.17
69436;SHT31;56625;54.322;18.582;2023-09-08T06:05:57;19.07;78.88
69436;SHT31;56625;54.322;18.582;2023-09-08T06:08:24;19.24;78.71
69436;SHT31;56625;54.322;18.582;2023-09-08T06:10:50;19.41;78.36
69436;SHT31;56625;54.322;18.582;2023-09-08T06:13:17;19.58;78.49
69436;SHT31;56625;54.322;18.582;2023-09-08T06:15:44;19.80;78.26
69436;SHT31;56625;54.322;18.582;2023-09-08T06:18:11;19.99;77.87
69436;SHT31;56625;54.322;18.582;2023-09-08T06:20:43;20.17;77.28
69436;SHT31;56625;54.322;18.582;2023-09-08T06:23:12;20.35;76.53
69436;SHT31;56625;54.322;18.582;2023-09-08T06:25:39;20.44;75.79
69436;SHT31;56625;54.322;18.582;2023-09-08T06:28:06;20.51;75.85
69436;SHT31;56625;54.322;18.582;2023-09-08T06:30:33;20.63;75.67
69436;SHT31;56625;54.322;18.582;2023-09-08T06:33:00;20.77;75.81
69436;SHT31;56625;54.322;18.582;2023-09-08T06:35:27;21.00;75.81
69436;SHT31;56625;54.322;18.582;2023-09-08T06:37:54;21.17;75.16
69436;SHT31;56625;54.322;18.582;2023-09-08T06:40:21;21.33;74.83
69436;SHT31;56625;54.322;18.582;2023-09-08T06:42:48;21.51;74.79
69436;SHT31;56625;54.322;18.582;2023-09-08T06:45:14;21.68;74.59
69436;SHT31;56625;54.322;18.582;2023-09-08T06:47:41;21.83;73.88
69436;SHT31;56625;54.322;18.582;2023-09-08T06:50:08;21.95;73.87
69436;SHT31;56625;54.322;18.582;2023-09-08T06:52:36;22.13;73.33
69436;SHT31;56625;54.322;18.582;2023-09-08T06:55:02;22.27;73.00
69436;SHT31;56625;54.322;18.582;2023-09-08T06:57:31;22.42;72.29
69436;SHT31;56625;54.322;18.582;2023-09-08T06:59:57;22.49;71.38
69436;SHT31;56625;54.322;18.582;2023-09-08T07:02:24;22.58;71.14
69436;SHT31;56625;54.322;18.582;2023-09-08T07:04:51;22.67;70.53
69436;SHT31;56625;54.322;18.582;2023-09-08T07:07:18;22.77;69.67
69436;SHT31;56625;54.322;18.582;2023-09-08T07:09:46;22.83;68.24
69436;SHT31;56625;54.322;18.582;2023-09-08T07:12:13;22.92;68.15
69436;SHT31;56625;54.322;18.582;2023-09-08T07:14:40;23.04;67.90
69436;SHT31;56625;54.322;18.582;2023-09-08T07:17:06;23.16;67.19
69436;SHT31;56625;54.322;18.582;2023-09-08T07:19:33;23.27;66.75
69436;SHT31;56625;54.322;18.582;2023-09-08T07:22:00;23.38;65.83
69436;SHT31;56625;54.322;18.582;2023-09-08T07:24:26;23.53;66.33
69436;SHT31;56625;54.322;18.582;2023-09-08T07:26:53;23.73;66.27
69436;SHT31;56625;54.322;18.582;2023-09-08T07:29:19;23.89;65.84
69436;SHT31;56625;54.322;18.582;2023-09-08T07:31:46;24.08;65.40
69436;SHT31;56625;54.322;18.582;2023-09-08T07:34:12;24.24;64.23
69436;SHT31;56625;54.322;18.582;2023-09-08T07:36:39;24.36;63.57
69436;SHT31;56625;54.322;18.582;2023-09-08T07:39:06;24.51;63.22
69436;SHT31;56625;54.322;18.582;2023-09-08T07:41:33;24.64;63.02
69436;SHT31;56625;54.322;18.582;2023-09-08T07:44:00;24.84;62.78
69436;SHT31;56625;54.322;18.582;2023-09-08T07:46:27;24.94;61.67
69436;SHT31;56625;54.322;18.582;2023-09-08T07:48:54;25.05;61.49
69436;SHT31;56625;54.322;18.582;2023-09-08T07:51:21;25.23;61.58
69436;SHT31;56625;54.322;18.582;2023-09-08T07:53:47;25.51;61.62
69436;SHT31;56625;54.322;18.582;2023-09-08T07:56:14;25.75;60.06
69436;SHT31;56625;54.322;18.582;2023-09-08T07:58:41;25.83;57.31
69436;SHT31;56625;54.322;18.582;2023-09-08T08:01:07;25.76;56.48
69436;SHT31;56625;54.322;18.582;2023-09-08T08:03:34;25.69;56.59
69436;SHT31;56625;54.322;18.582;2023-09-08T08:06:02;25.69;56.87
69436;SHT31;56625;54.322;18.582;2023-09-08T08:08:28;25.73;57.35
69436;SHT31;56625;54.322;18.582;2023-09-08T08:10:56;25.79;57.01
69436;SHT31;56625;54.322;18.582;2023-09-08T08:13:23;25.87;57.11
69436;SHT31;56625;54.322;18.582;2023-09-08T08:15:50;25.98;56.68
69436;SHT31;56625;54.322;18.582;2023-09-08T08:18:17;26.09;56.21
69436;SHT31;56625;54.322;18.582;2023-09-08T08:20:44;26.15;56.22
69436;SHT31;56625;54.322;18.582;2023-09-08T08:23:11;26.23;56.33
69436;SHT31;56625;54.322;18.582;2023-09-08T08:25:37;26.37;56.69
69436;SHT31;56625;54.322;18.582;2023-09-08T08:28:04;26.56;54.98
69436;SHT31;56625;54.322;18.582;2023-09-08T08:30:31;26.64;54.23
69436;SHT31;56625;54.322;18.582;2023-09-08T08:32:58;26.73;55.03
69436;SHT31;56625;54.322;18.582;2023-09-08T08:35:25;26.88;54.34
69436;SHT31;56625;54.322;18.582;2023-09-08T08:37:52;26.83;53.25
69436;SHT31;56625;54.322;18.582;2023-09-08T08:40:18;26.78;53.94
69436;SHT31;56625;54.322;18.582;2023-09-08T08:42:45;26.79;53.24
69436;SHT31;56625;54.322;18.582;2023-09-08T08:45:12;26.79;52.73
69436;SHT31;56625;54.322;18.582;2023-09-08T08:47:42;26.82;53.41
69436;SHT31;56625;54.322;18.582;2023-09-08T08:50:10;26.86;51.98
69436;SHT31;56625;54.322;18.582;2023-09-08T08:52:40;26.91;51.77
69436;SHT31;56625;54.322;18.582;2023-09-08T08:55:06;27.05;51.75
69436;SHT31;56625;54.322;18.582;2023-09-08T08:57:36;27.27;51.13
69436;SHT31;56625;54.322;18.582;2023-09-08T09:00:06;27.27;50.47
69436;SHT31;56625;54.322;18.582;2023-09-08T09:02:40;27.32;51.06
69436;SHT31;56625;54.322;18.582;2023-09-08T09:05:12;27.32;50.97
69436;SHT31;56625;54.322;18.582;2023-09-08T09:07:41;27.29;51.93
69436;SHT31;56625;54.322;18.582;2023-09-08T09:10:09;27.44;52.23
69436;SHT31;56625;54.322;18.582;2023-09-08T09:12:37;27.53;51.75
69436;SHT31;56625;54.322;18.582;2023-09-08T09:15:04;27.69;51.87
69436;SHT31;56625;54.322;18.582;2023-09-08T09:17:32;27.88;51.33
69436;SHT31;56625;54.322;18.582;2023-09-08T09:20:13;28.05;50.65
69436;SHT31;56625;54.322;18.582;2023-09-08T09:22:41;28.19;50.67
69436;SHT31;56625;54.322;18.582;2023-09-08T09:25:09;28.40;50.21
69436;SHT31;56625;54.322;18.582;2023-09-08T09:27:37;28.50;49.81
69436;SHT31;56625;54.322;18.582;2023-09-08T09:30:07;28.60;49.37
69436;SHT31;56625;54.322;18.582;2023-09-08T09:32:34;28.67;49.46
69436;SHT31;56625;54.322;18.582;2023-09-08T09:35:01;28.80;49.31
69436;SHT31;56625;54.322;18.582;2023-09-08T09:37:29;28.94;48.82
69436;SHT31;56625;54.322;18.582;2023-09-08T09:39:56;28.96;47.96
69436;SHT31;56625;54.322;18.582;2023-09-08T09:42:23;28.99;47.96
69436;SHT31;56625;54.322;18.582;2023-09-08T09:44:53;28.97;47.38
69436;SHT31;56625;54.322;18.582;2023-09-08T09:47:19;28.91;47.15
69436;SHT31;56625;54.322;18.582;2023-09-08T09:49:47;28.83;46.70
69436;SHT31;56625;54.322;18.582;2023-09-08T09:52:22;28.84;47.12
69436;SHT31;56625;54.322;18.582;2023-09-08T09:54:52;28.96;46.47
69436;SHT31;56625;54.322;18.582;2023-09-08T09:57:22;29.08;45.58
69436;SHT31;56625;54.322;18.582;2023-09-08T09:59:49;29.16;44.77
69436;SHT31;56625;54.322;18.582;2023-09-08T10:02:19;29.08;45.44
69436;SHT31;56625;54.322;18.582;2023-09-08T10:04:48;29.11;46.48
69436;SHT31;56625;54.322;18.582;2023-09-08T10:07:16;29.22;45.84
69436;SHT31;56625;54.322;18.582;2023-09-08T10:09:46;29.13;44.40
69436;SHT31;56625;54.322;18.582;2023-09-08T10:12:32;28.98;44.69
69436;SHT31;56625;54.322;18.582;2023-09-08T10:15:03;28.88;44.74
69436;SHT31;56625;54.322;18.582;2023-09-08T10:17:32;28.72;44.97
69436;SHT31;56625;54.322;18.582;2023-09-08T10:20:00;28.68;46.21
69436;SHT31;56625;54.322;18.582;2023-09-08T10:22:41;28.99;46.46
69436;SHT31;56625;54.322;18.582;2023-09-08T10:25:09;29.17;45.48
69436;SHT31;56625;54.322;18.582;2023-09-08T10:27:41;29.07;45.21
69436;SHT31;56625;54.322;18.582;2023-09-08T10:30:09;29.13;46.30
69436;SHT31;56625;54.322;18.582;2023-09-08T10:32:37;29.36;46.88
69436;SHT31;56625;54.322;18.582;2023-09-08T10:35:07;29.48;47.57
69436;SHT31;56625;54.322;18.582;2023-09-08T10:37:35;29.42;47.54
69436;SHT31;56625;54.322;18.582;2023-09-08T10:43:11;29.23;48.06
69436;SHT31;56625;54.322;18.582;2023-09-08T10:45:39;29.30;48.95
69436;SHT31;56625;54.322;18.582;2023-09-08T10:48:07;29.41;48.34
69436;SHT31;56625;54.322;18.582;2023-09-08T10:50:40;29.44;48.36
69436;SHT31;56625;54.322;18.582;2023-09-08T10:55:42;29.55;47.83
69436;SHT31;56625;54.322;18.582;2023-09-08T10:58:33;29.55;47.71
69436;SHT31;56625;54.322;18.582;2023-09-08T11:01:13;29.50;47.50
69436;SHT31;56625;54.322;18.582;2023-09-08T11:03:44;29.48;47.65
69436;SHT31;56625;54.322;18.582;2023-09-08T11:06:16;29.49;47.98
69436;SHT31;56625;54.322;18.582;2023-09-08T11:08:49;29.50;47.70
69436;SHT31;56625;54.322;18.582;2023-09-08T11:11:21;29.42;47.16
69436;SHT31;56625;54.322;18.582;2023-09-08T11:13:48;29.32;48.12
69436;SHT31;56625;54.322;18.582;2023-09-08T11:16:15;29.46;47.75
69436;SHT31;56625;54.322;18.582;2023-09-08T11:18:42;29.56;47.92
69436;SHT31;56625;54.322;18.582;2023-09-08T11:21:09;29.62;48.02
69436;SHT31;56625;54.322;18.582;2023-09-08T11:23:38;29.67;48.40
69436;SHT31;56625;54.322;18.582;2023-09-08T11:26:05;29.68;48.48
69436;SHT31;56625;54.322;18.582;2023-09-08T11:28:32;29.67;47.74
69436;SHT31;56625;54.322;18.582;2023-09-08T11:31:00;29.54;47.72
69436;SHT31;56625;54.322;18.582;2023-09-08T11:33:39;29.53;48.06
69436;SHT31;56625;54.322;18.582;2023-09-08T11:36:12;29.59;48.13
69436;SHT31;56625;54.322;18.582;2023-09-08T11:38:43;29.67;47.88
69436;SHT31;56625;54.322;18.582;2023-09-08T11:41:12;29.74;47.71
69436;SHT31;56625;54.322;18.582;2023-09-08T11:43:41;29.76;47.40
69436;SHT31;56625;54.322;18.582;2023-09-08T11:46:10;29.73;47.67
69436;SHT31;56625;54.322;18.582;2023-09-08T11:48:39;29.79;47.87
69436;SHT31;56625;54.322;18.582;2023-09-08T11:51:08;29.81;47.00
69436;SHT31;56625;54.322;18.582;2023-09-08T11:53:36;29.69;47.40
69436;SHT31;56625;54.322;18.582;2023-09-08T11:56:06;29.66;47.64
69436;SHT31;56625;54.322;18.582;2023-09-08T11:58:34;29.60;47.85
69436;SHT31;56625;54.322;18.582;2023-09-08T12:01:04;29.57;47.93
69436;SHT31;56625;54.322;18.582;2023-09-08T12:03:33;29.54;47.91
69436;SHT31;56625;54.322;18.582;2023-09-08T12:06:01;29.52;48.12
69436;SHT31;56625;54.322;18.582;2023-09-08T12:08:30;29.51;48.26
69436;SHT31;56625;54.322;18.582;2023-09-08T12:10:58;29.53;48.02
69436;SHT31;56625;54.322;18.582;2023-09-08T12:13:26;29.29;48.33
69436;SHT31;56625;54.322;18.582;2023-09-08T12:15:54;29.03;48.88
69436;SHT31;56625;54.322;18.582;2023-09-08T12:18:36;28.92;49.26
69436;SHT31;56625;54.322;18.582;2023-09-08T12:21:07;28.92;49.23
69436;SHT31;56625;54.322;18.582;2023-09-08T12:23:35;28.92;49.65
69436;SHT31;56625;54.322;18.582;2023-09-08T12:26:19;28.97;49.39
69436;SHT31;56625;54.322;18.582;2023-09-08T12:28:48;28.95;49.01
69436;SHT31;56625;54.322;18.582;2023-09-08T12:31:17;28.93;48.99
69436;SHT31;56625;54.322;18.582;2023-09-08T12:33:46;28.94;49.15
69436;SHT31;56625;54.322;18.582;2023-09-08T12:36:14;28.95;49.23
69436;SHT31;56625;54.322;18.582;2023-09-08T12:38:52;28.98;49.23
69436;SHT31;56625;54.322;18.582;2023-09-08T12:41:20;28.97;49.10
69436;SHT31;56625;54.322;18.582;2023-09-08T12:43:48;28.92;49.11
69436;SHT31;56625;54.322;18.582;2023-09-08T12:46:17;28.93;49.05
69436;SHT31;56625;54.322;18.582;2023-09-08T12:48:46;28.92;48.51
69436;SHT31;56625;54.322;18.582;2023-09-08T12:51:14;28.85;48.78
69436;SHT31;56625;54.322;18.582;2023-09-08T12:53:42;28.88;49.33
69436;SHT31;56625;54.322;18.582;2023-09-08T12:56:11;28.90;49.23
69436;SHT31;56625;54.322;18.582;2023-09-08T12:58:39;28.85;49.28
69436;SHT31;56625;54.322;18.582;2023-09-08T13:01:07;28.83;49.49
69436;SHT31;56625;54.322;18.582;2023-09-08T13:03:35;28.87;49.22
69436;SHT31;56625;54.322;18.582;2023-09-08T13:06:06;28.88;48.93
69436;SHT31;56625;54.322;18.582;2023-09-08T13:08:34;28.84;48.92
69436;SHT31;56625;54.322;18.582;2023-09-08T13:11:02;28.77;48.89
69436;SHT31;56625;54.322;18.582;2023-09-08T13:13:31;28.61;48.67
69436;SHT31;56625;54.322;18.582;2023-09-08T13:15:59;28.50;49.23
69436;SHT31;56625;54.322;18.582;2023-09-08T13:18:27;28.50;49.27
69436;SHT31;56625;54.322;18.582;2023-09-08T13:20:55;28.41;49.24
69436;SHT31;56625;54.322;18.582;2023-09-08T13:23:23;28.35;49.38
69436;SHT31;56625;54.322;18.582;2023-09-08T13:25:51;28.30;49.36
69436;SHT31;56625;54.322;18.582;2023-09-08T13:28:19;28.26;49.62
69436;SHT31;56625;54.322;18.582;2023-09-08T13:30:47;28.17;49.10
69436;SHT31;56625;54.322;18.582;2023-09-08T13:33:15;28.05;49.54
69436;SHT31;56625;54.322;18.582;2023-09-08T13:35:43;27.95;49.99
69436;SHT31;56625;54.322;18.582;2023-09-08T13:38:12;27.86;50.29
69436;SHT31;56625;54.322;18.582;2023-09-08T13:40:40;27.84;50.60
69436;SHT31;56625;54.322;18.582;2023-09-08T13:43:09;27.82;50.41
69436;SHT31;56625;54.322;18.582;2023-09-08T13:45:38;27.74;50.32
69436;SHT31;56625;54.322;18.582;2023-09-08T13:48:07;27.69;50.73
69436;SHT31;56625;54.322;18.582;2023-09-08T13:50:37;27.68;50.65
69436;SHT31;56625;54.322;18.582;2023-09-08T13:53:09;27.63;50.75
69436;SHT31;56625;54.322;18.582;2023-09-08T13:55:41;27.61;51.06
69436;SHT31;56625;54.322;18.582;2023-09-08T13:58:12;27.57;50.53
69436;SHT31;56625;54.322;18.582;2023-09-08T14:00:41;27.44;51.13
69436;SHT31;56625;54.322;18.582;2023-09-08T14:03:12;27.41;51.45
69436;SHT31;56625;54.322;18.582;2023-09-08T14:05:47;27.38;51.23
69436;SHT31;56625;54.322;18.582;2023-09-08T14:08:21;27.36;51.60
69436;SHT31;56625;54.322;18.582;2023-09-08T14:11:09;27.40;51.46
69436;SHT31;56625;54.322;18.582;2023-09-08T14:13:46;27.37;51.43
69436;SHT31;56625;54.322;18.582;2023-09-08T14:16:16;27.34;51.53
69436;SHT31;56625;54.322;18.582;2023-09-08T14:18:46;27.32;51.54
69436;SHT31;56625;54.322;18.582;2023-09-08T14:21:14;27.27;51.47
69436;SHT31;56625;54.322;18.582;2023-09-08T14:23:42;27.20;51.95
69436;SHT31;56625;54.322;18.582;2023-09-08T14:26:10;27.20;52.20
69436;SHT31;56625;54.322;18.582;2023-09-08T14:28:38;27.20;51.75
69436;SHT31;56625;54.322;18.582;2023-09-08T14:31:06;27.17;52.11
69436;SHT31;56625;54.322;18.582;2023-09-08T14:33:34;27.16;52.03
69436;SHT31;56625;54.322;18.582;2023-09-08T14:36:03;27.12;52.17
69436;SHT31;56625;54.322;18.582;2023-09-08T14:38:31;27.07;52.44
69436;SHT31;56625;54.322;18.582;2023-09-08T14:41:00;27.00;52.32
69436;SHT31;56625;54.322;18.582;2023-09-08T14:43:30;26.95;52.71
69436;SHT31;56625;54.322;18.582;2023-09-08T14:45:59;26.93;52.84
69436;SHT31;56625;54.322;18.582;2023-09-08T14:48:31;26.89;52.53
69436;SHT31;56625;54.322;18.582;2023-09-08T14:51:00;26.81;52.75
69436;SHT31;56625;54.322;18.582;2023-09-08T14:53:29;26.73;52.74
69436;SHT31;56625;54.322;18.582;2023-09-08T14:55:59;26.56;52.66
69436;SHT31;56625;54.322;18.582;2023-09-08T14:58:27;26.36;53.22
69436;SHT31;56625;54.322;18.582;2023-09-08T15:01:01;26.23;53.68
69436;SHT31;56625;54.322;18.582;2023-09-08T15:03:31;26.14;53.79
69436;SHT31;56625;54.322;18.582;2023-09-08T15:06:00;26.08;54.22
69436;SHT31;56625;54.322;18.582;2023-09-08T15:08:29;26.07;54.44
69436;SHT31;56625;54.322;18.582;2023-09-08T15:10:57;26.03;54.90
69436;SHT31;56625;54.322;18.582;2023-09-08T15:13:25;26.01;55.24
69436;SHT31;56625;54.322;18.582;2023-09-08T15:15:53;26.00;55.08
69436;SHT31;56625;54.322;18.582;2023-09-08T15:18:21;25.97;55.03
69436;SHT31;56625;54.322;18.582;2023-09-08T15:20:51;25.94;54.91
69436;SHT31;56625;54.322;18.582;2023-09-08T15:23:23;25.85;54.97
69436;SHT31;56625;54.322;18.582;2023-09-08T15:25:54;25.75;55.18
69436;SHT31;56625;54.322;18.582;2023-09-08T15:28:25;25.69;55.37
69436;SHT31;56625;54.322;18.582;2023-09-08T15:30:53;25.62;55.78
69436;SHT31;56625;54.322;18.582;2023-09-08T15:33:24;25.59;55.97